sensor_id;sensor_type;location;lat;lon;timestamp;temperature;humidity
13521;DHT22;6832;51.186;3.236;2022-08-21T00:00:59;20.80;57.90
13521;DHT22;6832;51.186;3.236;2022-08-21T00:03:32;20.80;58.10
13521;DHT22;6832;51.186;3.236;2022-08-21T00:06:07;20.70;58.30
13521;DHT22;6832;51.186;3.236;2022-08-21T00:08:37;20.70;58.40
13521;DHT22;6832;51.186;3.236;2022-08-21T00:11:10;20.60;58.30
13521;DHT22;6832;51.186;3.236;2022-08-21T00:13:47;20.60;58.80
13521;DHT22;6832;51.186;3.236;2022-08-21T00:16:19;20.50;58.90
13521;DHT22;6832;51.186;3.236;2022-08-21T00:18:48;20.50;58.60
13521;DHT22;6832;51.186;3.236;2022-08-21T00:21:19;20.50;58.90
13521;DHT22;6832;51.186;3.236;2022-08-21T00:24:03;20.40;58.90
13521;DHT22;6832;51.186;3.236;2022-08-21T00:26:33;20.40;59.40
13521;DHT22;6832;51.186;3.236;2022-08-21T00:29:00;20.30;58.80
13521;DHT22;6832;51.186;3.236;2022-08-21T00:31:30;20.30;59.00
13521;DHT22;6832;51.186;3.236;2022-08-21T00:34:04;20.30;59.10
13521;DHT22;6832;51.186;3.236;2022-08-21T00:36:33;20.30;59.70
13521;DHT22;6832;51.186;3.236;2022-08-21T00:39:08;20.20;59.50
13521;DHT22;6832;51.186;3.236;2022-08-21T00:41:38;20.20;59.80
13521;DHT22;6832;51.186;3.236;2022-08-21T00:44:08;20.10;59.60
13521;DHT22;6832;51.186;3.236;2022-08-21T00:46:36;20.10;59.70
13521;DHT22;6832;51.186;3.236;2022-08-21T00:49:06;20.10;59.70
13521;DHT22;6832;51.186;3.236;2022-08-21T00:51:39;20.10;60.00
13521;DHT22;6832;51.186;3.236;2022-08-21T00:54:07;20.10;60.10
13521;DHT22;6832;51.186;3.236;2022-08-21T00:56:37;20.00;60.00
13521;DHT22;6832;51.186;3.236;2022-08-21T00:59:10;20.00;60.00
13521;DHT22;6832;51.186;3.236;2022-08-21T01:01:38;20.00;60.30
13521;DHT22;6832;51.186;3.236;2022-08-21T01:04:11;20.00;60.00
13521;DHT22;6832;51.186;3.236;2022-08-21T01:06:43;20.00;60.70
13521;DHT22;6832;51.186;3.236;2022-08-21T01:09:18;19.90;60.30
13521;DHT22;6832;51.186;3.236;2022-08-21T01:11:58;19.80;60.30
13521;DHT22;6832;51.186;3.236;2022-08-21T01:14:27;19.80;60.60
13521;DHT22;6832;51.186;3.236;2022-08-21T01:16:55;19.80;60.60
13521;DHT22;6832;51.186;3.236;2022-08-21T01:19:26;19.80;60.80
13521;DHT22;6832;51.186;3.236;2022-08-21T01:21:56;19.80;61.10
13521;DHT22;6832;51.186;3.236;2022-08-21T01:24:39;19.70;61.00
13521;DHT22;6832;51.186;3.236;2022-08-21T01:27:07;19.70;61.60
13521;DHT22;6832;51.186;3.236;2022-08-21T01:29:39;19.70;60.90
13521;DHT22;6832;51.186;3.236;2022-08-21T01:32:15;19.70;61.20
13521;DHT22;6832;51.186;3.236;2022-08-21T01:34:52;19.60;61.40
13521;DHT22;6832;51.186;3.236;2022-08-21T01:37:22;19.60;61.70
13521;DHT22;6832;51.186;3.236;2022-08-21T01:39:59;19.60;61.50
13521;DHT22;6832;51.186;3.236;2022-08-21T01:42:39;19.60;62.10
13521;DHT22;6832;51.186;3.236;2022-08-21T01:45:17;19.50;62.80
13521;DHT22;6832;51.186;3.236;2022-08-21T01:47:46;19.50;62.20
13521;DHT22;6832;51.186;3.236;2022-08-21T01:50:15;19.50;61.70
13521;DHT22;6832;51.186;3.236;2022-08-21T01:52:47;19.40;61.80
13521;DHT22;6832;51.186;3.236;2022-08-21T01:55:17;19.40;62.20
13521;DHT22;6832;51.186;3.236;2022-08-21T01:57:48;19.40;62.10
13521;DHT22;6832;51.186;3.236;2022-08-21T02:00:19;19.30;62.20
13521;DHT22;6832;51.186;3.236;2022-08-21T02:02:49;19.30;62.30
13521;DHT22;6832;51.186;3.236;2022-08-21T02:05:19;19.30;62.20
13521;DHT22;6832;51.186;3.236;2022-08-21T02:07:50;19.30;62.40
13521;DHT22;6832;51.186;3.236;2022-08-21T02:10:23;19.20;62.50
13521;DHT22;6832;51.186;3.236;2022-08-21T02:12:58;19.20;62.60
13521;DHT22;6832;51.186;3.236;2022-08-21T02:15:30;19.20;62.90
13521;DHT22;6832;51.186;3.236;2022-08-21T02:18:00;19.20;62.90
13521;DHT22;6832;51.186;3.236;2022-08-21T02:20:29;19.10;62.70
13521;DHT22;6832;51.186;3.236;2022-08-21T02:22:59;19.10;62.90
13521;DHT22;6832;51.186;3.236;2022-08-21T02:25:30;19.10;63.00
13521;DHT22;6832;51.186;3.236;2022-08-21T02:27:59;19.10;63.20
13521;DHT22;6832;51.186;3.236;2022-08-21T02:30:35;19.00;63.00
13521;DHT22;6832;51.186;3.236;2022-08-21T02:33:14;19.00;63.60
13521;DHT22;6832;51.186;3.236;2022-08-21T02:35:50;19.00;63.50
13521;DHT22;6832;51.186;3.236;2022-08-21T02:38:34;19.00;63.40
13521;DHT22;6832;51.186;3.236;2022-08-21T02:41:07;19.00;63.70
13521;DHT22;6832;51.186;3.236;2022-08-21T02:43:36;18.90;63.90
13521;DHT22;6832;51.186;3.236;2022-08-21T02:46:16;18.90;63.70
13521;DHT22;6832;51.186;3.236;2022-08-21T02:48:45;18.80;64.40
13521;DHT22;6832;51.186;3.236;2022-08-21T02:51:23;18.90;63.90
13521;DHT22;6832;51.186;3.236;2022-08-21T02:53:59;18.80;63.90
13521;DHT22;6832;51.186;3.236;2022-08-21T02:56:29;18.80;64.40
13521;DHT22;6832;51.186;3.236;2022-08-21T02:58:57;18.80;64.50
13521;DHT22;6832;51.186;3.236;2022-08-21T03:01:52;18.80;64.40
13521;DHT22;6832;51.186;3.236;2022-08-21T03:04:21;18.80;65.20
13521;DHT22;6832;51.186;3.236;2022-08-21T03:06:50;18.80;64.40
13521;DHT22;6832;51.186;3.236;2022-08-21T03:09:23;18.70;64.30
13521;DHT22;6832;51.186;3.236;2022-08-21T03:11:58;18.70;65.00
13521;DHT22;6832;51.186;3.236;2022-08-21T03:14:26;18.70;65.20
13521;DHT22;6832;51.186;3.236;2022-08-21T03:16:53;18.70;64.90
13521;DHT22;6832;51.186;3.236;2022-08-21T03:19:20;18.70;64.90
13521;DHT22;6832;51.186;3.236;2022-08-21T03:21:52;18.70;65.00
13521;DHT22;6832;51.186;3.236;2022-08-21T03:24:38;18.70;65.40
13521;DHT22;6832;51.186;3.236;2022-08-21T03:27:09;18.70;66.00
13521;DHT22;6832;51.186;3.236;2022-08-21T03:29:51;18.60;65.40
13521;DHT22;6832;51.186;3.236;2022-08-21T03:32:18;18.60;65.30
13521;DHT22;6832;51.186;3.236;2022-08-21T03:34:47;18.60;65.50
13521;DHT22;6832;51.186;3.236;2022-08-21T03:37:18;18.60;65.50
13521;DHT22;6832;51.186;3.236;2022-08-21T03:40:02;18.60;66.10
13521;DHT22;6832;51.186;3.236;2022-08-21T03:42:31;18.50;65.90
13521;DHT22;6832;51.186;3.236;2022-08-21T03:45:02;18.50;66.00
13521;DHT22;6832;51.186;3.236;2022-08-21T03:47:30;18.50;66.10
13521;DHT22;6832;51.186;3.236;2022-08-21T03:50:03;18.50;66.00
13521;DHT22;6832;51.186;3.236;2022-08-21T03:52:34;18.50;66.40
13521;DHT22;6832;51.186;3.236;2022-08-21T03:55:04;18.50;66.30
13521;DHT22;6832;51.186;3.236;2022-08-21T03:57:34;18.50;66.70
13521;DHT22;6832;51.186;3.236;2022-08-21T04:00:04;18.50;66.80
13521;DHT22;6832;51.186;3.236;2022-08-21T04:02:34;18.50;66.80
13521;DHT22;6832;51.186;3.236;2022-08-21T04:05:06;18.40;66.40
13521;DHT22;6832;51.186;3.236;2022-08-21T04:07:51;18.40;66.90
13521;DHT22;6832;51.186;3.236;2022-08-21T04:10:29;18.40;66.80
13521;DHT22;6832;51.186;3.236;2022-08-21T04:12:59;18.40;67.20
13521;DHT22;6832;51.186;3.236;2022-08-21T04:15:26;18.40;67.00
13521;DHT22;6832;51.186;3.236;2022-08-21T04:18:00;18.40;66.90
13521;DHT22;6832;51.186;3.236;2022-08-21T04:20:43;18.40;67.60
13521;DHT22;6832;51.186;3.236;2022-08-21T04:23:21;18.30;67.40
13521;DHT22;6832;51.186;3.236;2022-08-21T04:25:56;18.40;68.20
13521;DHT22;6832;51.186;3.236;2022-08-21T04:28:32;18.30;68.00
13521;DHT22;6832;51.186;3.236;2022-08-21T04:31:06;18.30;68.30
13521;DHT22;6832;51.186;3.236;2022-08-21T04:33:40;18.30;67.90
13521;DHT22;6832;51.186;3.236;2022-08-21T04:36:09;18.30;68.50
13521;DHT22;6832;51.186;3.236;2022-08-21T04:38:46;18.30;68.70
13521;DHT22;6832;51.186;3.236;2022-08-21T04:41:29;18.30;68.30
13521;DHT22;6832;51.186;3.236;2022-08-21T04:43:58;18.30;69.50
13521;DHT22;6832;51.186;3.236;2022-08-21T04:46:36;18.20;68.50
13521;DHT22;6832;51.186;3.236;2022-08-21T04:49:20;18.30;68.80
13521;DHT22;6832;51.186;3.236;2022-08-21T04:52:15;18.20;69.10
13521;DHT22;6832;51.186;3.236;2022-08-21T04:57:50;18.30;70.40
13521;DHT22;6832;51.186;3.236;2022-08-21T05:00:25;18.20;69.50
13521;DHT22;6832;51.186;3.236;2022-08-21T05:02:55;18.20;70.20
13521;DHT22;6832;51.186;3.236;2022-08-21T05:05:42;18.20;69.60
13521;DHT22;6832;51.186;3.236;2022-08-21T05:12:07;18.20;71.20
13521;DHT22;6832;51.186;3.236;2022-08-21T05:18:14;18.30;71.40
13521;DHT22;6832;51.186;3.236;2022-08-21T05:20:57;18.20;71.00
13521;DHT22;6832;51.186;3.236;2022-08-21T05:23:25;18.30;70.90
13521;DHT22;6832;51.186;3.236;2022-08-21T05:26:03;18.30;71.10
13521;DHT22;6832;51.186;3.236;2022-08-21T05:28:42;18.30;71.50
13521;DHT22;6832;51.186;3.236;2022-08-21T05:31:22;18.30;71.70
13521;DHT22;6832;51.186;3.236;2022-08-21T05:34:04;18.30;72.40
13521;DHT22;6832;51.186;3.236;2022-08-21T05:36:34;18.40;72.50
13521;DHT22;6832;51.186;3.236;2022-08-21T05:41:56;18.40;71.90
13521;DHT22;6832;51.186;3.236;2022-08-21T05:44:25;18.40;72.50
13521;DHT22;6832;51.186;3.236;2022-08-21T05:47:08;18.40;72.40
13521;DHT22;6832;51.186;3.236;2022-08-21T05:49:52;18.40;72.70
13521;DHT22;6832;51.186;3.236;2022-08-21T05:52:27;18.40;73.90
13521;DHT22;6832;51.186;3.236;2022-08-21T05:54:59;18.40;74.20
13521;DHT22;6832;51.186;3.236;2022-08-21T05:57:29;18.50;73.80
13521;DHT22;6832;51.186;3.236;2022-08-21T06:00:09;18.50;74.10
13521;DHT22;6832;51.186;3.236;2022-08-21T06:03:11;18.60;74.80
13521;DHT22;6832;51.186;3.236;2022-08-21T06:12:37;18.60;75.40
13521;DHT22;6832;51.186;3.236;2022-08-21T06:15:31;18.70;75.60
13521;DHT22;6832;51.186;3.236;2022-08-21T06:18:31;18.70;76.50
13521;DHT22;6832;51.186;3.236;2022-08-21T06:21:17;18.80;76.50
13521;DHT22;6832;51.186;3.236;2022-08-21T06:23:53;18.80;77.70
13521;DHT22;6832;51.186;3.236;2022-08-21T06:26:41;18.80;77.20
13521;DHT22;6832;51.186;3.236;2022-08-21T06:29:28;18.90;77.20
13521;DHT22;6832;51.186;3.236;2022-08-21T06:32:19;18.90;77.20
13521;DHT22;6832;51.186;3.236;2022-08-21T06:34:53;19.00;77.80
13521;DHT22;6832;51.186;3.236;2022-08-21T06:37:30;19.10;77.80
13521;DHT22;6832;51.186;3.236;2022-08-21T06:40:13;19.10;78.40
13521;DHT22;6832;51.186;3.236;2022-08-21T06:43:07;19.20;78.20
13521;DHT22;6832;51.186;3.236;2022-08-21T06:46:09;19.30;79.40
13521;DHT22;6832;51.186;3.236;2022-08-21T06:48:39;19.30;79.30
13521;DHT22;6832;51.186;3.236;2022-08-21T06:51:44;19.40;78.30
13521;DHT22;6832;51.186;3.236;2022-08-21T06:54:46;19.50;79.10
13521;DHT22;6832;51.186;3.236;2022-08-21T06:57:26;19.60;79.30
13521;DHT22;6832;51.186;3.236;2022-08-21T07:03:38;19.70;79.20
13521;DHT22;6832;51.186;3.236;2022-08-21T07:06:35;19.90;78.80
13521;DHT22;6832;51.186;3.236;2022-08-21T07:09:38;19.90;78.10
13521;DHT22;6832;51.186;3.236;2022-08-21T07:12:17;20.00;78.80
13521;DHT22;6832;51.186;3.236;2022-08-21T07:15:11;20.20;78.70
13521;DHT22;6832;51.186;3.236;2022-08-21T07:18:02;20.20;78.40
13521;DHT22;6832;51.186;3.236;2022-08-21T07:21:06;20.30;78.40
13521;DHT22;6832;51.186;3.236;2022-08-21T07:23:42;20.40;78.50
13521;DHT22;6832;51.186;3.236;2022-08-21T07:26:33;20.50;78.50
13521;DHT22;6832;51.186;3.236;2022-08-21T07:29:14;20.60;77.90
13521;DHT22;6832;51.186;3.236;2022-08-21T07:31:43;20.60;78.60
13521;DHT22;6832;51.186;3.236;2022-08-21T07:34:40;20.70;77.80
13521;DHT22;6832;51.186;3.236;2022-08-21T07:37:16;20.80;78.50
13521;DHT22;6832;51.186;3.236;2022-08-21T07:39:52;20.90;77.90
13521;DHT22;6832;51.186;3.236;2022-08-21T07:43:00;20.90;77.20
13521;DHT22;6832;51.186;3.236;2022-08-21T07:45:53;21.00;76.50
13521;DHT22;6832;51.186;3.236;2022-08-21T07:48:34;21.10;77.00
13521;DHT22;6832;51.186;3.236;2022-08-21T07:51:20;21.30;76.90
13521;DHT22;6832;51.186;3.236;2022-08-21T07:54:07;21.30;77.10
13521;DHT22;6832;51.186;3.236;2022-08-21T07:56:59;21.40;77.10
13521;DHT22;6832;51.186;3.236;2022-08-21T07:59:39;21.50;76.40
13521;DHT22;6832;51.186;3.236;2022-08-21T08:02:23;21.50;75.80
13521;DHT22;6832;51.186;3.236;2022-08-21T08:05:01;21.60;76.50
13521;DHT22;6832;51.186;3.236;2022-08-21T08:07:32;21.70;76.00
13521;DHT22;6832;51.186;3.236;2022-08-21T08:10:04;21.70;75.50
13521;DHT22;6832;51.186;3.236;2022-08-21T08:12:35;21.80;75.70
13521;DHT22;6832;51.186;3.236;2022-08-21T08:15:12;21.80;75.20
13521;DHT22;6832;51.186;3.236;2022-08-21T08:17:39;21.90;75.10
13521;DHT22;6832;51.186;3.236;2022-08-21T08:20:19;21.90;75.10
13521;DHT22;6832;51.186;3.236;2022-08-21T08:22:47;22.00;75.20
13521;DHT22;6832;51.186;3.236;2022-08-21T08:25:19;22.10;75.00
13521;DHT22;6832;51.186;3.236;2022-08-21T08:27:47;22.10;75.60
13521;DHT22;6832;51.186;3.236;2022-08-21T08:30:21;22.20;74.70
13521;DHT22;6832;51.186;3.236;2022-08-21T08:32:49;22.20;75.20
13521;DHT22;6832;51.186;3.236;2022-08-21T08:35:20;22.40;74.90
13521;DHT22;6832;51.186;3.236;2022-08-21T08:37:53;22.40;74.30
13521;DHT22;6832;51.186;3.236;2022-08-21T08:40:31;22.50;74.10
13521;DHT22;6832;51.186;3.236;2022-08-21T08:43:24;22.60;73.40
13521;DHT22;6832;51.186;3.236;2022-08-21T08:45:58;22.70;73.20
13521;DHT22;6832;51.186;3.236;2022-08-21T08:48:41;22.80;72.90
13521;DHT22;6832;51.186;3.236;2022-08-21T08:51:39;22.90;72.00
13521;DHT22;6832;51.186;3.236;2022-08-21T08:54:27;23.00;72.20
13521;DHT22;6832;51.186;3.236;2022-08-21T09:00:37;23.10;71.30
13521;DHT22;6832;51.186;3.236;2022-08-21T09:03:11;23.20;71.10
13521;DHT22;6832;51.186;3.236;2022-08-21T09:09:10;23.40;70.60
13521;DHT22;6832;51.186;3.236;2022-08-21T09:11:48;23.60;70.00
13521;DHT22;6832;51.186;3.236;2022-08-21T09:14:25;23.70;69.70
13521;DHT22;6832;51.186;3.236;2022-08-21T09:17:26;23.90;69.80
13521;DHT22;6832;51.186;3.236;2022-08-21T09:20:14;24.10;69.40
13521;DHT22;6832;51.186;3.236;2022-08-21T09:25:25;24.40;68.60
13521;DHT22;6832;51.186;3.236;2022-08-21T09:28:14;24.60;68.50
13521;DHT22;6832;51.186;3.236;2022-08-21T09:30:43;24.80;67.50
13521;DHT22;6832;51.186;3.236;2022-08-21T09:33:14;25.00;67.30
13521;DHT22;6832;51.186;3.236;2022-08-21T09:35:53;25.10;66.60
13521;DHT22;6832;51.186;3.236;2022-08-21T09:38:36;25.40;64.80
13521;DHT22;6832;51.186;3.236;2022-08-21T09:41:05;25.50;63.90
13521;DHT22;6832;51.186;3.236;2022-08-21T09:43:38;25.70;64.80
13521;DHT22;6832;51.186;3.236;2022-08-21T09:46:21;25.80;64.00
13521;DHT22;6832;51.186;3.236;2022-08-21T09:49:10;26.00;62.70
13521;DHT22;6832;51.186;3.236;2022-08-21T09:51:50;26.10;63.50
13521;DHT22;6832;51.186;3.236;2022-08-21T09:54:20;26.20;60.50
13521;DHT22;6832;51.186;3.236;2022-08-21T09:57:00;26.40;61.20
13521;DHT22;6832;51.186;3.236;2022-08-21T10:00:20;26.50;60.40
13521;DHT22;6832;51.186;3.236;2022-08-21T10:03:15;26.60;59.90
13521;DHT22;6832;51.186;3.236;2022-08-21T10:09:33;26.80;59.60
13521;DHT22;6832;51.186;3.236;2022-08-21T10:12:39;26.80;58.90
13521;DHT22;6832;51.186;3.236;2022-08-21T10:15:42;26.90;58.00
13521;DHT22;6832;51.186;3.236;2022-08-21T10:18:29;26.90;57.50
13521;DHT22;6832;51.186;3.236;2022-08-21T10:21:13;26.90;58.30
13521;DHT22;6832;51.186;3.236;2022-08-21T10:23:54;26.90;58.10
13521;DHT22;6832;51.186;3.236;2022-08-21T10:26:34;27.00;57.70
13521;DHT22;6832;51.186;3.236;2022-08-21T10:29:18;27.00;57.50
13521;DHT22;6832;51.186;3.236;2022-08-21T10:31:57;27.00;57.40
13521;DHT22;6832;51.186;3.236;2022-08-21T10:34:36;27.00;57.30
13521;DHT22;6832;51.186;3.236;2022-08-21T10:37:18;27.00;57.20
13521;DHT22;6832;51.186;3.236;2022-08-21T10:40:02;27.00;56.80
13521;DHT22;6832;51.186;3.236;2022-08-21T10:42:48;27.00;56.50
13521;DHT22;6832;51.186;3.236;2022-08-21T10:45:30;27.10;56.50
13521;DHT22;6832;51.186;3.236;2022-08-21T10:48:03;27.00;56.40
13521;DHT22;6832;51.186;3.236;2022-08-21T10:50:38;27.10;56.60
13521;DHT22;6832;51.186;3.236;2022-08-21T10:53:28;27.10;56.50
13521;DHT22;6832;51.186;3.236;2022-08-21T10:56:02;27.10;56.20
13521;DHT22;6832;51.186;3.236;2022-08-21T10:58:43;27.10;56.50
13521;DHT22;6832;51.186;3.236;2022-08-21T11:01:16;27.20;56.50
13521;DHT22;6832;51.186;3.236;2022-08-21T11:03:59;27.20;56.50
13521;DHT22;6832;51.186;3.236;2022-08-21T11:06:32;27.20;56.20
13521;DHT22;6832;51.186;3.236;2022-08-21T11:09:12;27.20;56.50
13521;DHT22;6832;51.186;3.236;2022-08-21T11:11:44;27.30;55.90
13521;DHT22;6832;51.186;3.236;2022-08-21T11:14:24;27.40;56.50
13521;DHT22;6832;51.186;3.236;2022-08-21T11:16:58;27.40;55.60
13521;DHT22;6832;51.186;3.236;2022-08-21T11:19:32;27.50;55.80
13521;DHT22;6832;51.186;3.236;2022-08-21T11:22:06;27.50;55.80
13521;DHT22;6832;51.186;3.236;2022-08-21T11:24:44;27.50;55.70
13521;DHT22;6832;51.186;3.236;2022-08-21T11:27:38;27.60;55.60
13521;DHT22;6832;51.186;3.236;2022-08-21T11:30:11;27.60;54.90
13521;DHT22;6832;51.186;3.236;2022-08-21T11:33:02;27.70;55.10
13521;DHT22;6832;51.186;3.236;2022-08-21T11:35:39;27.70;55.10
13521;DHT22;6832;51.186;3.236;2022-08-21T11:38:31;27.80;54.90
13521;DHT22;6832;51.186;3.236;2022-08-21T11:41:14;27.80;54.70
13521;DHT22;6832;51.186;3.236;2022-08-21T11:43:46;27.90;54.60
13521;DHT22;6832;51.186;3.236;2022-08-21T11:46:20;27.90;54.80
13521;DHT22;6832;51.186;3.236;2022-08-21T11:48:59;28.00;53.90
13521;DHT22;6832;51.186;3.236;2022-08-21T11:51:36;28.00;53.90
13521;DHT22;6832;51.186;3.236;2022-08-21T11:54:21;28.10;54.10
13521;DHT22;6832;51.186;3.236;2022-08-21T11:56:57;28.00;53.50
13521;DHT22;6832;51.186;3.236;2022-08-21T11:59:37;28.00;53.10
13521;DHT22;6832;51.186;3.236;2022-08-21T12:02:14;28.00;53.20
13521;DHT22;6832;51.186;3.236;2022-08-21T12:04:45;28.00;53.30
13521;DHT22;6832;51.186;3.236;2022-08-21T12:07:17;28.00;53.20
13521;DHT22;6832;51.186;3.236;2022-08-21T12:10:07;28.00;52.90
13521;DHT22;6832;51.186;3.236;2022-08-21T12:12:36;28.00;53.20
13521;DHT22;6832;51.186;3.236;2022-08-21T12:17:57;27.90;52.90
13521;DHT22;6832;51.186;3.236;2022-08-21T12:20:42;27.80;52.50
13521;DHT22;6832;51.186;3.236;2022-08-21T12:23:23;27.80;52.50
13521;DHT22;6832;51.186;3.236;2022-08-21T12:26:23;27.70;53.00
13521;DHT22;6832;51.186;3.236;2022-08-21T12:29:11;27.70;53.00
13521;DHT22;6832;51.186;3.236;2022-08-21T12:31:56;27.70;53.00
13521;DHT22;6832;51.186;3.236;2022-08-21T12:34:32;27.70;53.50
13521;DHT22;6832;51.186;3.236;2022-08-21T12:37:06;27.70;53.20
13521;DHT22;6832;51.186;3.236;2022-08-21T12:39:36;27.80;53.50
13521;DHT22;6832;51.186;3.236;2022-08-21T12:42:11;27.90;53.40
13521;DHT22;6832;51.186;3.236;2022-08-21T12:44:46;28.00;53.50
13521;DHT22;6832;51.186;3.236;2022-08-21T12:47:17;28.00;53.50
13521;DHT22;6832;51.186;3.236;2022-08-21T12:50:03;28.20;53.70
13521;DHT22;6832;51.186;3.236;2022-08-21T12:52:41;28.30;53.10
13521;DHT22;6832;51.186;3.236;2022-08-21T12:55:12;28.40;53.30
13521;DHT22;6832;51.186;3.236;2022-08-21T12:57:54;28.50;53.40
13521;DHT22;6832;51.186;3.236;2022-08-21T13:00:24;28.60;53.10
13521;DHT22;6832;51.186;3.236;2022-08-21T13:02:57;28.70;52.80
13521;DHT22;6832;51.186;3.236;2022-08-21T13:05:34;28.80;51.90
13521;DHT22;6832;51.186;3.236;2022-08-21T13:08:05;28.90;52.00
13521;DHT22;6832;51.186;3.236;2022-08-21T13:10:36;29.00;52.20
13521;DHT22;6832;51.186;3.236;2022-08-21T13:13:14;29.00;52.30
13521;DHT22;6832;51.186;3.236;2022-08-21T13:16:06;29.20;51.80
13521;DHT22;6832;51.186;3.236;2022-08-21T13:18:55;29.30;51.50
13521;DHT22;6832;51.186;3.236;2022-08-21T13:21:31;29.40;51.70
13521;DHT22;6832;51.186;3.236;2022-08-21T13:24:16;29.60;51.30
13521;DHT22;6832;51.186;3.236;2022-08-21T13:26:46;29.60;50.50
13521;DHT22;6832;51.186;3.236;2022-08-21T13:29:21;29.70;51.30
13521;DHT22;6832;51.186;3.236;2022-08-21T13:31:51;29.70;50.90
13521;DHT22;6832;51.186;3.236;2022-08-21T13:34:33;29.70;50.40
13521;DHT22;6832;51.186;3.236;2022-08-21T13:37:25;29.70;50.00
13521;DHT22;6832;51.186;3.236;2022-08-21T13:39:54;29.70;50.10
13521;DHT22;6832;51.186;3.236;2022-08-21T13:42:26;29.60;50.50
13521;DHT22;6832;51.186;3.236;2022-08-21T13:44:56;29.50;50.40
13521;DHT22;6832;51.186;3.236;2022-08-21T13:47:54;29.40;50.60
13521;DHT22;6832;51.186;3.236;2022-08-21T13:50:27;29.40;50.10
13521;DHT22;6832;51.186;3.236;2022-08-21T13:53:27;29.30;50.60
13521;DHT22;6832;51.186;3.236;2022-08-21T13:56:01;29.20;51.00
13521;DHT22;6832;51.186;3.236;2022-08-21T13:58:45;29.10;50.90
13521;DHT22;6832;51.186;3.236;2022-08-21T14:01:33;29.10;50.80
13521;DHT22;6832;51.186;3.236;2022-08-21T14:04:04;29.00;50.20
13521;DHT22;6832;51.186;3.236;2022-08-21T14:06:34;28.90;50.70
13521;DHT22;6832;51.186;3.236;2022-08-21T14:09:24;28.90;50.80
13521;DHT22;6832;51.186;3.236;2022-08-21T14:11:57;28.80;50.80
13521;DHT22;6832;51.186;3.236;2022-08-21T14:14:31;28.80;50.90
13521;DHT22;6832;51.186;3.236;2022-08-21T14:17:05;28.70;51.00
13521;DHT22;6832;51.186;3.236;2022-08-21T14:19:48;28.70;51.10
13521;DHT22;6832;51.186;3.236;2022-08-21T14:22:31;28.60;50.80
13521;DHT22;6832;51.186;3.236;2022-08-21T14:28:22;28.60;51.10
13521;DHT22;6832;51.186;3.236;2022-08-21T14:34:11;28.50;51.80
13521;DHT22;6832;51.186;3.236;2022-08-21T14:36:48;28.50;51.90
13521;DHT22;6832;51.186;3.236;2022-08-21T14:39:29;28.50;51.70
13521;DHT22;6832;51.186;3.236;2022-08-21T14:42:09;28.50;51.70
13521;DHT22;6832;51.186;3.236;2022-08-21T14:47:32;28.60;52.00
13521;DHT22;6832;51.186;3.236;2022-08-21T14:50:06;28.70;52.10
13521;DHT22;6832;51.186;3.236;2022-08-21T14:52:41;28.70;51.60
13521;DHT22;6832;51.186;3.236;2022-08-21T14:55:24;28.70;52.00
13521;DHT22;6832;51.186;3.236;2022-08-21T14:57:55;28.70;51.90
13521;DHT22;6832;51.186;3.236;2022-08-21T15:00:24;28.70;51.80
13521;DHT22;6832;51.186;3.236;2022-08-21T15:03:18;28.70;51.70
13521;DHT22;6832;51.186;3.236;2022-08-21T15:05:49;28.70;51.70
13521;DHT22;6832;51.186;3.236;2022-08-21T15:08:19;28.70;51.90
13521;DHT22;6832;51.186;3.236;2022-08-21T15:10:55;28.70;52.00
13521;DHT22;6832;51.186;3.236;2022-08-21T15:13:23;28.70;52.50
13521;DHT22;6832;51.186;3.236;2022-08-21T15:15:54;28.70;52.00
13521;DHT22;6832;51.186;3.236;2022-08-21T15:18:47;28.80;52.20
13521;DHT22;6832;51.186;3.236;2022-08-21T15:21:26;28.80;52.00
13521;DHT22;6832;51.186;3.236;2022-08-21T15:24:12;28.90;52.00
13521;DHT22;6832;51.186;3.236;2022-08-21T15:26:47;28.90;52.10
13521;DHT22;6832;51.186;3.236;2022-08-21T15:29:20;28.90;51.80
13521;DHT22;6832;51.186;3.236;2022-08-21T15:31:55;29.00;52.00
13521;DHT22;6832;51.186;3.236;2022-08-21T15:34:25;29.00;52.00
13521;DHT22;6832;51.186;3.236;2022-08-21T15:36:56;29.00;51.70
13521;DHT22;6832;51.186;3.236;2022-08-21T15:39:24;29.00;51.70
13521;DHT22;6832;51.186;3.236;2022-08-21T15:42:02;29.00;51.80
13521;DHT22;6832;51.186;3.236;2022-08-21T15:44:43;29.00;51.70
13521;DHT22;6832;51.186;3.236;2022-08-21T15:47:13;29.00;51.80
13521;DHT22;6832;51.186;3.236;2022-08-21T15:49:57;29.00;51.80
13521;DHT22;6832;51.186;3.236;2022-08-21T15:52:45;29.00;51.60
13521;DHT22;6832;51.186;3.236;2022-08-21T15:55:21;28.90;51.30
13521;DHT22;6832;51.186;3.236;2022-08-21T15:57:51;28.90;51.60
13521;DHT22;6832;51.186;3.236;2022-08-21T16:00:26;28.80;51.20
13521;DHT22;6832;51.186;3.236;2022-08-21T16:02:58;28.80;50.80
13521;DHT22;6832;51.186;3.236;2022-08-21T16:05:41;28.80;51.30
13521;DHT22;6832;51.186;3.236;2022-08-21T16:08:11;28.70;51.50
13521;DHT22;6832;51.186;3.236;2022-08-21T16:10:39;28.70;51.60
13521;DHT22;6832;51.186;3.236;2022-08-21T16:13:27;28.70;51.80
13521;DHT22;6832;51.186;3.236;2022-08-21T16:16:05;28.60;51.40
13521;DHT22;6832;51.186;3.236;2022-08-21T16:18:41;28.50;51.30
13521;DHT22;6832;51.186;3.236;2022-08-21T16:21:11;28.50;51.30
13521;DHT22;6832;51.186;3.236;2022-08-21T16:23:48;28.50;51.40
13521;DHT22;6832;51.186;3.236;2022-08-21T16:26:24;28.40;51.00
13521;DHT22;6832;51.186;3.236;2022-08-21T16:29:06;28.40;51.10
13521;DHT22;6832;51.186;3.236;2022-08-21T16:31:39;28.30;51.00
13521;DHT22;6832;51.186;3.236;2022-08-21T16:34:17;28.20;51.00
13521;DHT22;6832;51.186;3.236;2022-08-21T16:36:56;28.10;51.10
13521;DHT22;6832;51.186;3.236;2022-08-21T16:39:36;28.10;51.00
13521;DHT22;6832;51.186;3.236;2022-08-21T16:42:13;28.00;51.10
13521;DHT22;6832;51.186;3.236;2022-08-21T16:44:58;27.90;51.20
13521;DHT22;6832;51.186;3.236;2022-08-21T16:47:32;27.90;51.30
13521;DHT22;6832;51.186;3.236;2022-08-21T16:49:59;27.80;51.40
13521;DHT22;6832;51.186;3.236;2022-08-21T16:52:51;27.70;51.70
13521;DHT22;6832;51.186;3.236;2022-08-21T16:55:22;27.60;51.80
13521;DHT22;6832;51.186;3.236;2022-08-21T16:58:07;27.60;51.80
13521;DHT22;6832;51.186;3.236;2022-08-21T17:00:54;27.50;51.80
13521;DHT22;6832;51.186;3.236;2022-08-21T17:03:30;27.50;52.20
13521;DHT22;6832;51.186;3.236;2022-08-21T17:06:08;27.40;51.90
13521;DHT22;6832;51.186;3.236;2022-08-21T17:08:40;27.40;52.10
13521;DHT22;6832;51.186;3.236;2022-08-21T17:11:19;27.40;52.20
13521;DHT22;6832;51.186;3.236;2022-08-21T17:13:49;27.30;52.10
13521;DHT22;6832;51.186;3.236;2022-08-21T17:16:21;27.30;52.10
13521;DHT22;6832;51.186;3.236;2022-08-21T17:18:59;27.30;52.10
13521;DHT22;6832;51.186;3.236;2022-08-21T17:21:27;27.30;52.10
13521;DHT22;6832;51.186;3.236;2022-08-21T17:23:59;27.20;52.10
13521;DHT22;6832;51.186;3.236;2022-08-21T17:26:30;27.20;52.10
13521;DHT22;6832;51.186;3.236;2022-08-21T17:28:58;27.20;52.10
13521;DHT22;6832;51.186;3.236;2022-08-21T17:31:32;27.20;52.30
13521;DHT22;6832;51.186;3.236;2022-08-21T17:34:03;27.10;52.40
13521;DHT22;6832;51.186;3.236;2022-08-21T17:36:32;27.10;52.50
13521;DHT22;6832;51.186;3.236;2022-08-21T17:39:03;27.10;52.50